sensor_id;sensor_type;location;lat;lon;timestamp;P1;durP1;ratioP1;P2;durP2;ratioP2
21181;SDS011;10749;46.296;7.524;2022-12-18T00:00:45;5.97;;;3.40;;
21181;SDS011;10749;46.296;7.524;2022-12-18T00:03:12;5.27;;;3.07;;
21181;SDS011;10749;46.296;7.524;2022-12-18T00:05:45;4.63;;;3.07;;
21181;SDS011;10749;46.296;7.524;2022-12-18T00:08:14;3.87;;;2.73;;
21181;SDS011;10749;46.296;7.524;2022-12-18T00:10:40;4.90;;;3.00;;
21181;SDS011;10749;46.296;7.524;2022-12-18T00:13:06;5.20;;;2.80;;
21181;SDS011;10749;46.296;7.524;2022-12-18T00:15:33;3.93;;;3.00;;
21181;SDS011;10749;46.296;7.524;2022-12-18T00:18:03;4.87;;;2.83;;
21181;SDS011;10749;46.296;7.524;2022-12-18T00:20:28;5.27;;;2.80;;
21181;SDS011;10749;46.296;7.524;2022-12-18T00:22:54;4.67;;;2.80;;
21181;SDS011;10749;46.296;7.524;2022-12-18T00:25:19;4.20;;;2.93;;
21181;SDS011;10749;46.296;7.524;2022-12-18T00:27:45;5.80;;;3.20;;
21181;SDS011;10749;46.296;7.524;2022-12-18T00:30:10;4.43;;;2.57;;
21181;SDS011;10749;46.296;7.524;2022-12-18T00:32:36;3.37;;;2.40;;
21181;SDS011;10749;46.296;7.524;2022-12-18T00:35:02;3.03;;;2.13;;
21181;SDS011;10749;46.296;7.524;2022-12-18T00:37:28;3.90;;;2.37;;
21181;SDS011;10749;46.296;7.524;2022-12-18T00:39:53;4.00;;;2.60;;
21181;SDS011;10749;46.296;7.524;2022-12-18T00:42:19;5.53;;;3.57;;
21181;SDS011;10749;46.296;7.524;2022-12-18T00:45:03;5.63;;;3.50;;
21181;SDS011;10749;46.296;7.524;2022-12-18T00:47:28;5.33;;;2.97;;
21181;SDS011;10749;46.296;7.524;2022-12-18T00:49:53;5.03;;;3.07;;
21181;SDS011;10749;46.296;7.524;2022-12-18T00:52:19;3.27;;;2.30;;
21181;SDS011;10749;46.296;7.524;2022-12-18T00:54:44;3.00;;;1.90;;
21181;SDS011;10749;46.296;7.524;2022-12-18T00:57:09;2.33;;;1.77;;
21181;SDS011;10749;46.296;7.524;2022-12-18T00:59:35;3.40;;;2.00;;
21181;SDS011;10749;46.296;7.524;2022-12-18T01:02:00;2.90;;;2.20;;
21181;SDS011;10749;46.296;7.524;2022-12-18T01:04:25;3.90;;;2.23;;
21181;SDS011;10749;46.296;7.524;2022-12-18T01:06:51;4.47;;;2.47;;
21181;SDS011;10749;46.296;7.524;2022-12-18T01:09:16;2.93;;;2.20;;
21181;SDS011;10749;46.296;7.524;2022-12-18T01:11:41;3.93;;;1.80;;
21181;SDS011;10749;46.296;7.524;2022-12-18T01:14:07;3.00;;;1.93;;
21181;SDS011;10749;46.296;7.524;2022-12-18T01:16:32;5.27;;;2.30;;
21181;SDS011;10749;46.296;7.524;2022-12-18T01:18:57;3.10;;;1.93;;
21181;SDS011;10749;46.296;7.524;2022-12-18T01:21:23;3.30;;;2.10;;
21181;SDS011;10749;46.296;7.524;2022-12-18T01:23:52;3.93;;;2.33;;
21181;SDS011;10749;46.296;7.524;2022-12-18T01:26:19;3.30;;;2.23;;
21181;SDS011;10749;46.296;7.524;2022-12-18T01:28:44;3.97;;;2.07;;
21181;SDS011;10749;46.296;7.524;2022-12-18T01:33:38;4.27;;;2.83;;
21181;SDS011;10749;46.296;7.524;2022-12-18T01:36:03;2.40;;;1.60;;
21181;SDS011;10749;46.296;7.524;2022-12-18T01:38:28;1.87;;;1.50;;
21181;SDS011;10749;46.296;7.524;2022-12-18T01:40:57;3.77;;;2.03;;
21181;SDS011;10749;46.296;7.524;2022-12-18T01:43:40;2.27;;;1.50;;
21181;SDS011;10749;46.296;7.524;2022-12-18T01:46:09;3.63;;;1.93;;
21181;SDS011;10749;46.296;7.524;2022-12-18T01:48:34;2.63;;;1.80;;
21181;SDS011;10749;46.296;7.524;2022-12-18T01:51:00;2.43;;;1.70;;
21181;SDS011;10749;46.296;7.524;2022-12-18T01:53:26;2.27;;;1.60;;
21181;SDS011;10749;46.296;7.524;2022-12-18T01:55:53;2.30;;;1.50;;
21181;SDS011;10749;46.296;7.524;2022-12-18T01:58:35;2.27;;;1.40;;
21181;SDS011;10749;46.296;7.524;2022-12-18T02:01:01;2.17;;;1.40;;
21181;SDS011;10749;46.296;7.524;2022-12-18T02:03:29;2.30;;;1.50;;
21181;SDS011;10749;46.296;7.524;2022-12-18T02:05:58;2.63;;;1.30;;
21181;SDS011;10749;46.296;7.524;2022-12-18T02:13:46;1.87;;;1.30;;
21181;SDS011;10749;46.296;7.524;2022-12-18T02:16:25;3.00;;;1.30;;
21181;SDS011;10749;46.296;7.524;2022-12-18T02:19:25;2.97;;;1.57;;
21181;SDS011;10749;46.296;7.524;2022-12-18T02:27:49;2.63;;;1.67;;
21181;SDS011;10749;46.296;7.524;2022-12-18T02:30:16;4.87;;;1.70;;
21181;SDS011;10749;46.296;7.524;2022-12-18T02:32:45;3.47;;;1.73;;
21181;SDS011;10749;46.296;7.524;2022-12-18T02:35:16;2.33;;;1.70;;
21181;SDS011;10749;46.296;7.524;2022-12-18T02:37:47;3.17;;;1.70;;
21181;SDS011;10749;46.296;7.524;2022-12-18T02:40:13;3.23;;;1.80;;
21181;SDS011;10749;46.296;7.524;2022-12-18T02:42:40;2.77;;;1.70;;
21181;SDS011;10749;46.296;7.524;2022-12-18T02:45:06;1.73;;;1.20;;
21181;SDS011;10749;46.296;7.524;2022-12-18T02:47:34;3.83;;;1.60;;
21181;SDS011;10749;46.296;7.524;2022-12-18T02:57:49;3.23;;;1.23;;
21181;SDS011;10749;46.296;7.524;2022-12-18T03:00:24;2.37;;;1.50;;
21181;SDS011;10749;46.296;7.524;2022-12-18T03:03:12;2.20;;;1.30;;
21181;SDS011;10749;46.296;7.524;2022-12-18T03:05:49;1.47;;;0.93;;
21181;SDS011;10749;46.296;7.524;2022-12-18T03:08:22;1.67;;;1.10;;
21181;SDS011;10749;46.296;7.524;2022-12-18T03:10:56;2.97;;;1.00;;
21181;SDS011;10749;46.296;7.524;2022-12-18T03:13:27;2.70;;;1.10;;
21181;SDS011;10749;46.296;7.524;2022-12-18T03:15:58;1.67;;;1.07;;
21181;SDS011;10749;46.296;7.524;2022-12-18T03:18:25;1.93;;;1.30;;
21181;SDS011;10749;46.296;7.524;2022-12-18T03:20:58;2.77;;;1.27;;
21181;SDS011;10749;46.296;7.524;2022-12-18T03:23:28;2.13;;;1.40;;
21181;SDS011;10749;46.296;7.524;2022-12-18T03:26:02;2.07;;;1.50;;
21181;SDS011;10749;46.296;7.524;2022-12-18T03:28:32;2.27;;;1.40;;
21181;SDS011;10749;46.296;7.524;2022-12-18T03:31:01;3.53;;;1.50;;
21181;SDS011;10749;46.296;7.524;2022-12-18T03:33:30;3.37;;;1.40;;
21181;SDS011;10749;46.296;7.524;2022-12-18T03:35:56;1.33;;;1.17;;
21181;SDS011;10749;46.296;7.524;2022-12-18T03:38:21;2.13;;;1.13;;
21181;SDS011;10749;46.296;7.524;2022-12-18T03:44:00;2.47;;;1.53;;
21181;SDS011;10749;46.296;7.524;2022-12-18T03:46:51;2.73;;;1.40;;
21181;SDS011;10749;46.296;7.524;2022-12-18T03:49:35;2.03;;;1.27;;
21181;SDS011;10749;46.296;7.524;2022-12-18T03:52:17;3.03;;;1.70;;
21181;SDS011;10749;46.296;7.524;2022-12-18T03:54:48;1.83;;;1.20;;
21181;SDS011;10749;46.296;7.524;2022-12-18T03:57:16;2.37;;;1.27;;
21181;SDS011;10749;46.296;7.524;2022-12-18T03:59:45;3.07;;;1.17;;
21181;SDS011;10749;46.296;7.524;2022-12-18T04:02:15;2.07;;;1.30;;
21181;SDS011;10749;46.296;7.524;2022-12-18T04:04:42;3.20;;;1.40;;
21181;SDS011;10749;46.296;7.524;2022-12-18T04:07:09;2.40;;;1.30;;
21181;SDS011;10749;46.296;7.524;2022-12-18T04:09:36;2.13;;;1.50;;
21181;SDS011;10749;46.296;7.524;2022-12-18T04:12:04;2.97;;;1.40;;
21181;SDS011;10749;46.296;7.524;2022-12-18T04:14:30;3.80;;;1.37;;
21181;SDS011;10749;46.296;7.524;2022-12-18T04:17:00;2.20;;;1.60;;
21181;SDS011;10749;46.296;7.524;2022-12-18T04:19:26;2.60;;;1.40;;
21181;SDS011;10749;46.296;7.524;2022-12-18T04:21:51;1.97;;;1.57;;
21181;SDS011;10749;46.296;7.524;2022-12-18T04:24:16;2.00;;;1.37;;
21181;SDS011;10749;46.296;7.524;2022-12-18T04:26:42;4.80;;;1.40;;
21181;SDS011;10749;46.296;7.524;2022-12-18T04:29:07;1.83;;;1.07;;
21181;SDS011;10749;46.296;7.524;2022-12-18T04:31:32;2.07;;;1.30;;
21181;SDS011;10749;46.296;7.524;2022-12-18T04:33:58;2.60;;;1.53;;
21181;SDS011;10749;46.296;7.524;2022-12-18T04:36:23;2.63;;;1.30;;
21181;SDS011;10749;46.296;7.524;2022-12-18T04:38:48;2.83;;;1.40;;
21181;SDS011;10749;46.296;7.524;2022-12-18T04:41:14;1.27;;;1.10;;
21181;SDS011;10749;46.296;7.524;2022-12-18T04:43:39;2.40;;;1.30;;
21181;SDS011;10749;46.296;7.524;2022-12-18T04:46:05;3.03;;;1.60;;
21181;SDS011;10749;46.296;7.524;2022-12-18T04:48:31;2.83;;;1.50;;
21181;SDS011;10749;46.296;7.524;2022-12-18T04:50:57;3.23;;;1.37;;
21181;SDS011;10749;46.296;7.524;2022-12-18T04:53:22;3.73;;;1.10;;
21181;SDS011;10749;46.296;7.524;2022-12-18T04:55:48;2.47;;;0.80;;
21181;SDS011;10749;46.296;7.524;2022-12-18T04:58:13;2.10;;;1.20;;
21181;SDS011;10749;46.296;7.524;2022-12-18T05:00:39;2.63;;;1.20;;
21181;SDS011;10749;46.296;7.524;2022-12-18T05:03:04;1.57;;;0.97;;
21181;SDS011;10749;46.296;7.524;2022-12-18T05:05:29;1.63;;;1.33;;
21181;SDS011;10749;46.296;7.524;2022-12-18T05:07:55;1.67;;;1.00;;
21181;SDS011;10749;46.296;7.524;2022-12-18T05:10:20;1.23;;;0.97;;
21181;SDS011;10749;46.296;7.524;2022-12-18T05:12:46;1.70;;;0.90;;
21181;SDS011;10749;46.296;7.524;2022-12-18T05:15:23;1.60;;;1.03;;
21181;SDS011;10749;46.296;7.524;2022-12-18T05:17:51;1.93;;;0.97;;
21181;SDS011;10749;46.296;7.524;2022-12-18T05:20:16;2.23;;;1.10;;
21181;SDS011;10749;46.296;7.524;2022-12-18T05:22:43;1.53;;;0.90;;
21181;SDS011;10749;46.296;7.524;2022-12-18T05:25:08;1.60;;;0.90;;
21181;SDS011;10749;46.296;7.524;2022-12-18T05:27:33;1.70;;;1.00;;
21181;SDS011;10749;46.296;7.524;2022-12-18T05:29:59;1.80;;;1.20;;
21181;SDS011;10749;46.296;7.524;2022-12-18T05:32:24;2.50;;;0.93;;
21181;SDS011;10749;46.296;7.524;2022-12-18T05:34:49;2.67;;;1.07;;
21181;SDS011;10749;46.296;7.524;2022-12-18T05:37:15;1.57;;;0.90;;
21181;SDS011;10749;46.296;7.524;2022-12-18T05:39:42;2.00;;;1.00;;
21181;SDS011;10749;46.296;7.524;2022-12-18T05:42:07;1.50;;;1.20;;
21181;SDS011;10749;46.296;7.524;2022-12-18T05:44:33;1.60;;;0.97;;
21181;SDS011;10749;46.296;7.524;2022-12-18T05:46:58;1.70;;;1.00;;
21181;SDS011;10749;46.296;7.524;2022-12-18T05:49:24;2.67;;;1.13;;
21181;SDS011;10749;46.296;7.524;2022-12-18T05:51:49;2.00;;;0.90;;
21181;SDS011;10749;46.296;7.524;2022-12-18T05:54:14;2.60;;;1.40;;
21181;SDS011;10749;46.296;7.524;2022-12-18T05:56:40;1.70;;;1.13;;
21181;SDS011;10749;46.296;7.524;2022-12-18T05:59:05;2.17;;;1.43;;
21181;SDS011;10749;46.296;7.524;2022-12-18T06:01:30;4.70;;;1.50;;
21181;SDS011;10749;46.296;7.524;2022-12-18T06:03:56;1.63;;;1.13;;
21181;SDS011;10749;46.296;7.524;2022-12-18T06:06:25;2.27;;;1.27;;
21181;SDS011;10749;46.296;7.524;2022-12-18T06:08:52;1.83;;;1.10;;
21181;SDS011;10749;46.296;7.524;2022-12-18T06:11:20;2.03;;;1.20;;
21181;SDS011;10749;46.296;7.524;2022-12-18T06:13:51;2.17;;;1.00;;
21181;SDS011;10749;46.296;7.524;2022-12-18T06:16:20;2.00;;;1.13;;
21181;SDS011;10749;46.296;7.524;2022-12-18T06:18:45;2.50;;;1.10;;
21181;SDS011;10749;46.296;7.524;2022-12-18T06:21:11;1.87;;;1.23;;
21181;SDS011;10749;46.296;7.524;2022-12-18T06:23:36;2.00;;;1.03;;
21181;SDS011;10749;46.296;7.524;2022-12-18T06:26:03;2.63;;;1.10;;
21181;SDS011;10749;46.296;7.524;2022-12-18T06:28:33;1.37;;;1.00;;
21181;SDS011;10749;46.296;7.524;2022-12-18T06:30:58;2.07;;;1.10;;
21181;SDS011;10749;46.296;7.524;2022-12-18T06:33:25;2.37;;;1.00;;
21181;SDS011;10749;46.296;7.524;2022-12-18T06:35:52;1.57;;;1.10;;
21181;SDS011;10749;46.296;7.524;2022-12-18T06:38:17;2.50;;;1.30;;
21181;SDS011;10749;46.296;7.524;2022-12-18T06:40:43;2.30;;;1.00;;
21181;SDS011;10749;46.296;7.524;2022-12-18T06:43:08;1.33;;;0.97;;
21181;SDS011;10749;46.296;7.524;2022-12-18T06:45:33;1.67;;;1.10;;
21181;SDS011;10749;46.296;7.524;2022-12-18T06:47:59;1.60;;;1.00;;
21181;SDS011;10749;46.296;7.524;2022-12-18T06:50:24;1.53;;;0.93;;
21181;SDS011;10749;46.296;7.524;2022-12-18T06:52:49;1.90;;;1.10;;
21181;SDS011;10749;46.296;7.524;2022-12-18T06:55:15;4.13;;;1.13;;
21181;SDS011;10749;46.296;7.524;2022-12-18T06:57:40;1.33;;;0.90;;
21181;SDS011;10749;46.296;7.524;2022-12-18T07:00:05;1.63;;;1.00;;
21181;SDS011;10749;46.296;7.524;2022-12-18T07:02:32;1.23;;;0.90;;
21181;SDS011;10749;46.296;7.524;2022-12-18T07:04:57;2.50;;;1.13;;
21181;SDS011;10749;46.296;7.524;2022-12-18T07:07:23;2.37;;;1.17;;
21181;SDS011;10749;46.296;7.524;2022-12-18T07:09:51;2.57;;;1.50;;
21181;SDS011;10749;46.296;7.524;2022-12-18T07:12:17;2.57;;;1.47;;
21181;SDS011;10749;46.296;7.524;2022-12-18T07:14:42;2.40;;;1.40;;
21181;SDS011;10749;46.296;7.524;2022-12-18T07:17:08;2.40;;;1.40;;
21181;SDS011;10749;46.296;7.524;2022-12-18T07:19:33;3.20;;;1.87;;
21181;SDS011;10749;46.296;7.524;2022-12-18T07:21:59;3.10;;;1.70;;
21181;SDS011;10749;46.296;7.524;2022-12-18T07:24:39;2.57;;;1.70;;
21181;SDS011;10749;46.296;7.524;2022-12-18T07:27:05;5.07;;;2.17;;
21181;SDS011;10749;46.296;7.524;2022-12-18T07:29:30;4.20;;;1.97;;
21181;SDS011;10749;46.296;7.524;2022-12-18T07:31:55;3.40;;;2.00;;
21181;SDS011;10749;46.296;7.524;2022-12-18T07:34:21;3.40;;;1.90;;
21181;SDS011;10749;46.296;7.524;2022-12-18T07:36:46;2.47;;;1.70;;
21181;SDS011;10749;46.296;7.524;2022-12-18T07:39:12;3.37;;;2.00;;
21181;SDS011;10749;46.296;7.524;2022-12-18T07:41:37;2.17;;;1.43;;
21181;SDS011;10749;46.296;7.524;2022-12-18T07:44:03;2.47;;;1.40;;
21181;SDS011;10749;46.296;7.524;2022-12-18T07:46:29;2.30;;;1.30;;
21181;SDS011;10749;46.296;7.524;2022-12-18T07:48:54;3.03;;;1.33;;
21181;SDS011;10749;46.296;7.524;2022-12-18T07:51:19;2.23;;;1.07;;
21181;SDS011;10749;46.296;7.524;2022-12-18T07:53:45;3.20;;;1.13;;
21181;SDS011;10749;46.296;7.524;2022-12-18T07:56:11;1.77;;;0.90;;
21181;SDS011;10749;46.296;7.524;2022-12-18T07:58:37;3.63;;;1.33;;
21181;SDS011;10749;46.296;7.524;2022-12-18T08:01:06;2.37;;;1.97;;
21181;SDS011;10749;46.296;7.524;2022-12-18T08:03:33;3.00;;;2.03;;
21181;SDS011;10749;46.296;7.524;2022-12-18T08:05:59;4.47;;;2.37;;
21181;SDS011;10749;46.296;7.524;2022-12-18T08:08:26;3.97;;;2.37;;
21181;SDS011;10749;46.296;7.524;2022-12-18T08:10:52;3.00;;;2.27;;
21181;SDS011;10749;46.296;7.524;2022-12-18T08:13:17;4.30;;;1.70;;
21181;SDS011;10749;46.296;7.524;2022-12-18T08:15:42;3.10;;;2.00;;
21181;SDS011;10749;46.296;7.524;2022-12-18T08:18:08;2.80;;;1.70;;
21181;SDS011;10749;46.296;7.524;2022-12-18T08:20:33;3.27;;;1.77;;
21181;SDS011;10749;46.296;7.524;2022-12-18T08:22:58;2.80;;;1.57;;
21181;SDS011;10749;46.296;7.524;2022-12-18T08:25:24;5.90;;;2.50;;
21181;SDS011;10749;46.296;7.524;2022-12-18T08:27:49;6.43;;;3.80;;
21181;SDS011;10749;46.296;7.524;2022-12-18T08:30:14;6.07;;;3.80;;
21181;SDS011;10749;46.296;7.524;2022-12-18T08:32:39;4.63;;;3.13;;
21181;SDS011;10749;46.296;7.524;2022-12-18T08:35:05;6.47;;;3.53;;
21181;SDS011;10749;46.296;7.524;2022-12-18T08:37:31;5.27;;;3.60;;
21181;SDS011;10749;46.296;7.524;2022-12-18T08:39:56;8.37;;;3.60;;
21181;SDS011;10749;46.296;7.524;2022-12-18T08:42:21;5.77;;;3.23;;
21181;SDS011;10749;46.296;7.524;2022-12-18T08:45:06;3.60;;;1.87;;
21181;SDS011;10749;46.296;7.524;2022-12-18T08:47:31;3.47;;;1.90;;
21181;SDS011;10749;46.296;7.524;2022-12-18T08:49:57;4.23;;;1.80;;
21181;SDS011;10749;46.296;7.524;2022-12-18T08:52:22;3.57;;;2.00;;
21181;SDS011;10749;46.296;7.524;2022-12-18T08:54:47;2.07;;;1.40;;
21181;SDS011;10749;46.296;7.524;2022-12-18T08:57:13;3.13;;;1.70;;
21181;SDS011;10749;46.296;7.524;2022-12-18T08:59:38;3.97;;;2.13;;
21181;SDS011;10749;46.296;7.524;2022-12-18T09:02:03;5.97;;;2.67;;
21181;SDS011;10749;46.296;7.524;2022-12-18T09:04:29;4.70;;;3.13;;
21181;SDS011;10749;46.296;7.524;2022-12-18T09:06:54;5.33;;;2.90;;
21181;SDS011;10749;46.296;7.524;2022-12-18T09:09:19;5.57;;;3.40;;
21181;SDS011;10749;46.296;7.524;2022-12-18T09:11:44;10.47;;;3.10;;
21181;SDS011;10749;46.296;7.524;2022-12-18T09:14:10;4.63;;;3.13;;
21181;SDS011;10749;46.296;7.524;2022-12-18T09:16:35;5.13;;;2.77;;
21181;SDS011;10749;46.296;7.524;2022-12-18T09:19:02;5.30;;;2.90;;
21181;SDS011;10749;46.296;7.524;2022-12-18T09:21:30;3.67;;;2.50;;
21181;SDS011;10749;46.296;7.524;2022-12-18T09:23:56;4.20;;;2.50;;
21181;SDS011;10749;46.296;7.524;2022-12-18T09:26:22;2.83;;;1.80;;
21181;SDS011;10749;46.296;7.524;2022-12-18T09:28:49;4.63;;;2.70;;
21181;SDS011;10749;46.296;7.524;2022-12-18T09:31:16;5.90;;;3.27;;
21181;SDS011;10749;46.296;7.524;2022-12-18T09:33:43;4.00;;;2.90;;
21181;SDS011;10749;46.296;7.524;2022-12-18T09:36:10;3.80;;;2.43;;
21181;SDS011;10749;46.296;7.524;2022-12-18T09:38:37;3.43;;;2.17;;
21181;SDS011;10749;46.296;7.524;2022-12-18T09:41:05;4.63;;;2.40;;
21181;SDS011;10749;46.296;7.524;2022-12-18T09:43:45;2.63;;;2.10;;
21181;SDS011;10749;46.296;7.524;2022-12-18T09:46:16;3.40;;;2.37;;
21181;SDS011;10749;46.296;7.524;2022-12-18T09:48:50;4.83;;;2.33;;
21181;SDS011;10749;46.296;7.524;2022-12-18T09:51:21;5.00;;;2.60;;
21181;SDS011;10749;46.296;7.524;2022-12-18T09:53:51;3.33;;;1.90;;
21181;SDS011;10749;46.296;7.524;2022-12-18T09:56:22;3.17;;;2.00;;
21181;SDS011;10749;46.296;7.524;2022-12-18T09:58:53;2.30;;;1.90;;
21181;SDS011;10749;46.296;7.524;2022-12-18T10:01:23;4.10;;;1.90;;
21181;SDS011;10749;46.296;7.524;2022-12-18T10:03:49;3.07;;;1.97;;
21181;SDS011;10749;46.296;7.524;2022-12-18T10:09:06;4.33;;;2.13;;
21181;SDS011;10749;46.296;7.524;2022-12-18T10:11:56;3.47;;;1.87;;
21181;SDS011;10749;46.296;7.524;2022-12-18T10:17:26;5.43;;;2.70;;
21181;SDS011;10749;46.296;7.524;2022-12-18T10:20:10;5.67;;;3.20;;
21181;SDS011;10749;46.296;7.524;2022-12-18T10:22:48;5.77;;;2.90;;
21181;SDS011;10749;46.296;7.524;2022-12-18T10:25:28;5.23;;;2.80;;
21181;SDS011;10749;46.296;7.524;2022-12-18T10:28:13;3.93;;;2.60;;
21181;SDS011;10749;46.296;7.524;2022-12-18T10:30:41;4.17;;;2.30;;
21181;SDS011;10749;46.296;7.524;2022-12-18T10:33:14;4.30;;;2.50;;
21181;SDS011;10749;46.296;7.524;2022-12-18T10:35:42;5.53;;;2.30;;
21181;SDS011;10749;46.296;7.524;2022-12-18T10:43:20;4.63;;;2.40;;
21181;SDS011;10749;46.296;7.524;2022-12-18T10:48:34;4.33;;;2.50;;
21181;SDS011;10749;46.296;7.524;2022-12-18T10:51:04;3.27;;;2.10;;
21181;SDS011;10749;46.296;7.524;2022-12-18T10:53:31;4.97;;;2.30;;
21181;SDS011;10749;46.296;7.524;2022-12-18T10:55:59;3.20;;;2.13;;
21181;SDS011;10749;46.296;7.524;2022-12-18T10:58:26;4.77;;;2.23;;
21181;SDS011;10749;46.296;7.524;2022-12-18T11:06:28;6.77;;;2.57;;
21181;SDS011;10749;46.296;7.524;2022-12-18T11:09:04;2.83;;;2.10;;
21181;SDS011;10749;46.296;7.524;2022-12-18T11:11:32;4.53;;;2.57;;
21181;SDS011;10749;46.296;7.524;2022-12-18T11:13:59;6.80;;;3.30;;
21181;SDS011;10749;46.296;7.524;2022-12-18T11:16:26;3.53;;;2.47;;
21181;SDS011;10749;46.296;7.524;2022-12-18T11:18:52;3.50;;;2.50;;
21181;SDS011;10749;46.296;7.524;2022-12-18T11:21:18;5.20;;;2.53;;
21181;SDS011;10749;46.296;7.524;2022-12-18T11:23:49;5.23;;;2.83;;
21181;SDS011;10749;46.296;7.524;2022-12-18T11:26:16;4.87;;;2.37;;
21181;SDS011;10749;46.296;7.524;2022-12-18T11:28:43;4.23;;;2.60;;
21181;SDS011;10749;46.296;7.524;2022-12-18T11:31:27;3.30;;;2.17;;
21181;SDS011;10749;46.296;7.524;2022-12-18T11:34:01;3.73;;;2.40;;
21181;SDS011;10749;46.296;7.524;2022-12-18T11:36:38;3.83;;;2.20;;
21181;SDS011;10749;46.296;7.524;2022-12-18T11:39:50;3.90;;;2.30;;
21181;SDS011;10749;46.296;7.524;2022-12-18T11:44:52;3.57;;;2.07;;
21181;SDS011;10749;46.296;7.524;2022-12-18T11:50:16;3.03;;;2.07;;
21181;SDS011;10749;46.296;7.524;2022-12-18T11:52:43;3.90;;;2.53;;
21181;SDS011;10749;46.296;7.524;2022-12-18T11:58:10;4.47;;;2.80;;
21181;SDS011;10749;46.296;7.524;2022-12-18T12:00:53;4.70;;;2.77;;
21181;SDS011;10749;46.296;7.524;2022-12-18T12:03:35;4.10;;;2.37;;
21181;SDS011;10749;46.296;7.524;2022-12-18T12:06:13;3.07;;;2.20;;
21181;SDS011;10749;46.296;7.524;2022-12-18T12:09:08;3.83;;;2.17;;
21181;SDS011;10749;46.296;7.524;2022-12-18T12:17:44;5.00;;;2.43;;
21181;SDS011;10749;46.296;7.524;2022-12-18T12:20:20;3.43;;;2.60;;
21181;SDS011;10749;46.296;7.524;2022-12-18T12:25:59;3.20;;;2.23;;
21181;SDS011;10749;46.296;7.524;2022-12-18T12:34:13;4.17;;;2.60;;
21181;SDS011;10749;46.296;7.524;2022-12-18T12:36:52;4.67;;;2.40;;
21181;SDS011;10749;46.296;7.524;2022-12-18T12:39:22;3.67;;;2.70;;
21181;SDS011;10749;46.296;7.524;2022-12-18T12:41:54;6.20;;;2.63;;
21181;SDS011;10749;46.296;7.524;2022-12-18T12:44:49;4.10;;;2.70;;
21181;SDS011;10749;46.296;7.524;2022-12-18T12:47:30;7.83;;;2.93;;
21181;SDS011;10749;46.296;7.524;2022-12-18T12:50:02;5.07;;;2.70;;
21181;SDS011;10749;46.296;7.524;2022-12-18T12:52:32;5.30;;;2.50;;
21181;SDS011;10749;46.296;7.524;2022-12-18T12:55:07;3.73;;;2.40;;
21181;SDS011;10749;46.296;7.524;2022-12-18T12:57:41;4.93;;;2.13;;
21181;SDS011;10749;46.296;7.524;2022-12-18T13:00:21;4.57;;;2.53;;
21181;SDS011;10749;46.296;7.524;2022-12-18T13:05:54;3.27;;;2.60;;
21181;SDS011;10749;46.296;7.524;2022-12-18T13:08:30;6.33;;;3.20;;
21181;SDS011;10749;46.296;7.524;2022-12-18T13:10:57;4.03;;;2.47;;
21181;SDS011;10749;46.296;7.524;2022-12-18T13:13:52;4.00;;;2.30;;
21181;SDS011;10749;46.296;7.524;2022-12-18T13:16:20;3.17;;;2.33;;
21181;SDS011;10749;46.296;7.524;2022-12-18T13:18:50;5.30;;;2.60;;
21181;SDS011;10749;46.296;7.524;2022-12-18T13:21:21;3.73;;;2.67;;
21181;SDS011;10749;46.296;7.524;2022-12-18T13:23:52;5.57;;;2.33;;
21181;SDS011;10749;46.296;7.524;2022-12-18T13:31:15;4.63;;;2.50;;
21181;SDS011;10749;46.296;7.524;2022-12-18T13:34:14;4.10;;;2.50;;
21181;SDS011;10749;46.296;7.524;2022-12-18T13:36:51;3.00;;;2.33;;
21181;SDS011;10749;46.296;7.524;2022-12-18T13:41:43;4.77;;;2.33;;
21181;SDS011;10749;46.296;7.524;2022-12-18T13:47:00;4.97;;;2.23;;
21181;SDS011;10749;46.296;7.524;2022-12-18T13:49:43;4.03;;;2.37;;
21181;SDS011;10749;46.296;7.524;2022-12-18T13:52:16;4.27;;;2.50;;
21181;SDS011;10749;46.296;7.524;2022-12-18T13:54:45;4.80;;;3.10;;
21181;SDS011;10749;46.296;7.524;2022-12-18T13:59:54;4.40;;;2.30;;
21181;SDS011;10749;46.296;7.524;2022-12-18T14:02:21;5.17;;;2.73;;
21181;SDS011;10749;46.296;7.524;2022-12-18T14:04:48;3.83;;;2.40;;
21181;SDS011;10749;46.296;7.524;2022-12-18T14:07:15;2.80;;;1.97;;
21181;SDS011;10749;46.296;7.524;2022-12-18T14:09:46;5.63;;;2.40;;
21181;SDS011;10749;46.296;7.524;2022-12-18T14:12:16;5.57;;;2.10;;
21181;SDS011;10749;46.296;7.524;2022-12-18T14:15:50;3.83;;;2.47;;
21181;SDS011;10749;46.296;7.524;2022-12-18T14:17:59;4.60;;;2.00;;
21181;SDS011;10749;46.296;7.524;2022-12-18T14:20:29;3.73;;;2.30;;
21181;SDS011;10749;46.296;7.524;2022-12-18T14:22:56;4.00;;;2.30;;
21181;SDS011;10749;46.296;7.524;2022-12-18T14:25:26;5.00;;;2.30;;
21181;SDS011;10749;46.296;7.524;2022-12-18T14:28:00;4.33;;;2.03;;
21181;SDS011;10749;46.296;7.524;2022-12-18T14:30:28;3.07;;;1.93;;
21181;SDS011;10749;46.296;7.524;2022-12-18T14:35:27;4.57;;;2.70;;
21181;SDS011;10749;46.296;7.524;2022-12-18T14:37:59;4.40;;;2.40;;
21181;SDS011;10749;46.296;7.524;2022-12-18T14:40:35;4.77;;;2.40;;
21181;SDS011;10749;46.296;7.524;2022-12-18T14:43:00;3.90;;;2.17;;
21181;SDS011;10749;46.296;7.524;2022-12-18T14:45:43;3.50;;;2.47;;
21181;SDS011;10749;46.296;7.524;2022-12-18T14:48:15;3.67;;;2.30;;
21181;SDS011;10749;46.296;7.524;2022-12-18T14:50:43;5.03;;;2.20;;
21181;SDS011;10749;46.296;7.524;2022-12-18T14:53:19;3.67;;;2.20;;
21181;SDS011;10749;46.296;7.524;2022-12-18T14:55:48;2.90;;;2.00;;
21181;SDS011;10749;46.296;7.524;2022-12-18T14:58:15;5.13;;;1.80;;
21181;SDS011;10749;46.296;7.524;2022-12-18T15:00:42;3.20;;;1.83;;
21181;SDS011;10749;46.296;7.524;2022-12-18T15:03:08;4.03;;;2.40;;
21181;SDS011;10749;46.296;7.524;2022-12-18T15:05:34;5.53;;;2.57;;
21181;SDS011;10749;46.296;7.524;2022-12-18T15:08:01;6.27;;;2.40;;
21181;SDS011;10749;46.296;7.524;2022-12-18T15:10:31;4.97;;;2.60;;
21181;SDS011;10749;46.296;7.524;2022-12-18T15:20:54;5.53;;;3.17;;
21181;SDS011;10749;46.296;7.524;2022-12-18T15:25:57;5.97;;;2.97;;
21181;SDS011;10749;46.296;7.524;2022-12-18T15:33:39;7.60;;;3.47;;
21181;SDS011;10749;46.296;7.524;2022-12-18T15:36:10;9.60;;;4.67;;
21181;SDS011;10749;46.296;7.524;2022-12-18T15:38:37;7.60;;;4.07;;
21181;SDS011;10749;46.296;7.524;2022-12-18T15:41:11;10.43;;;4.10;;
21181;SDS011;10749;46.296;7.524;2022-12-18T15:43:38;9.23;;;3.93;;
21181;SDS011;10749;46.296;7.524;2022-12-18T15:46:04;11.90;;;4.70;;
21181;SDS011;10749;46.296;7.524;2022-12-18T15:48:32;10.77;;;4.40;;
21181;SDS011;10749;46.296;7.524;2022-12-18T15:50:59;14.33;;;5.57;;
21181;SDS011;10749;46.296;7.524;2022-12-18T15:53:26;10.60;;;4.80;;
21181;SDS011;10749;46.296;7.524;2022-12-18T15:55:55;8.10;;;4.73;;
21181;SDS011;10749;46.296;7.524;2022-12-18T15:58:38;9.70;;;5.50;;
21181;SDS011;10749;46.296;7.524;2022-12-18T16:01:04;8.23;;;5.00;;
21181;SDS011;10749;46.296;7.524;2022-12-18T16:03:29;9.03;;;5.23;;
21181;SDS011;10749;46.296;7.524;2022-12-18T16:05:55;8.73;;;5.27;;
21181;SDS011;10749;46.296;7.524;2022-12-18T16:08:20;8.40;;;4.80;;
21181;SDS011;10749;46.296;7.524;2022-12-18T16:10:45;8.13;;;5.13;;
21181;SDS011;10749;46.296;7.524;2022-12-18T16:13:11;9.90;;;5.43;;
21181;SDS011;10749;46.296;7.524;2022-12-18T16:15:40;8.47;;;5.70;;
21181;SDS011;10749;46.296;7.524;2022-12-18T16:18:05;6.83;;;4.90;;
21181;SDS011;10749;46.296;7.524;2022-12-18T16:20:30;11.20;;;4.97;;
21181;SDS011;10749;46.296;7.524;2022-12-18T16:22:55;9.00;;;5.00;;
21181;SDS011;10749;46.296;7.524;2022-12-18T16:25:25;12.57;;;5.93;;
21181;SDS011;10749;46.296;7.524;2022-12-18T16:27:52;10.00;;;5.87;;
21181;SDS011;10749;46.296;7.524;2022-12-18T16:30:27;10.63;;;4.90;;
21181;SDS011;10749;46.296;7.524;2022-12-18T16:32:55;14.10;;;7.70;;
21181;SDS011;10749;46.296;7.524;2022-12-18T16:35:21;10.47;;;6.90;;
21181;SDS011;10749;46.296;7.524;2022-12-18T16:37:47;28.83;;;17.10;;
21181;SDS011;10749;46.296;7.524;2022-12-18T16:40:15;10.40;;;6.40;;